Time;durP1;ratioP1;P1;durP2;ratioP2;P2;SDS_P1;SDS_P2;PMS_P1;PMS_P2;Temp;Humidity;BMP_temperature;BMP_pressure;BME280_temperature;BME280_humidity;BME280_pressure;Samples;Min_cycle;Max_cycle;Signal;HPM_P1;HPM_P2
2023/05/30 00:02:07;;;;;;;6.30;2.70;;;;;;;15.41;48.46;99449.67;107264;1257;59471;-40
2023/05/30 00:04:35;;;;;;;5.80;2.70;;;;;;;15.41;48.76;99448.11;107291;1263;59237;-40
2023/05/30 00:07:04;;;;;;;7.10;3.20;;;;;;;15.41;48.78;99446.16;107285;1257;71762;-40
2023/05/30 00:09:32;;;;;;;5.40;2.80;;;;;;;15.39;48.78;99444.98;107255;1260;67936;-40
2023/05/30 00:12:00;;;;;;;3.30;2.60;;;;;;;15.38;48.89;99444.84;107266;1257;72736;-40
2023/05/30 00:14:27;;;;;;;5.50;2.60;;;;;;;15.36;49.36;99447.48;107278;1258;59625;-40
2023/05/30 00:16:56;;;;;;;4.30;2.90;;;;;;;15.34;49.76;99446.08;107272;1256;60027;-40
2023/05/30 00:19:24;;;;;;;3.50;2.60;;;;;;;15.31;49.82;99444.05;107256;1258;73070;-41
2023/05/30 00:21:52;;;;;;;4.60;3.00;;;;;;;15.28;50.41;99452.55;107300;1256;66292;-40
2023/05/30 00:24:20;;;;;;;4.20;3.10;;;;;;;15.23;50.68;99449.27;107293;1262;71545;-40
2023/05/30 00:26:48;;;;;;;6.00;3.00;;;;;;;15.18;50.59;99446.53;107265;1258;60086;-40
2023/05/30 00:29:16;;;;;;;4.90;2.80;;;;;;;15.13;50.23;99445.41;107205;1263;59267;-40
2023/05/30 00:31:44;;;;;;;3.40;2.50;;;;;;;15.07;50.39;99446.66;107297;1257;73125;-40
2023/05/30 00:34:12;;;;;;;4.00;3.10;;;;;;;15.01;50.79;99443.83;107297;1257;66456;-40
2023/05/30 00:36:39;;;;;;;3.60;2.60;;;;;;;14.96;51.54;99442.11;107204;1257;71838;-40
2023/05/30 00:39:07;;;;;;;5.20;2.70;;;;;;;14.90;51.84;99442.02;107271;1257;59620;-40
2023/05/30 00:41:37;;;;;;;3.30;2.40;;;;;;;14.84;51.89;99440.67;107262;1257;60191;-40
2023/05/30 00:44:05;;;;;;;4.80;2.90;;;;;;;14.75;51.63;99438.77;107638;1252;73041;-40
2023/05/30 00:46:32;;;;;;;3.50;2.70;;;;;;;14.68;51.87;99437.27;107517;1253;66441;-40
2023/05/30 00:49:00;;;;;;;4.10;2.60;;;;;;;14.64;52.23;99436.08;107590;1254;72658;-40
2023/05/30 00:51:28;;;;;;;6.90;2.80;;;;;;;14.58;52.20;99441.20;107595;1254;60094;-40
2023/05/30 00:53:56;;;;;;;3.70;2.30;;;;;;;14.52;52.00;99440.95;107625;1254;59364;-40
2023/05/30 00:56:26;;;;;;;4.50;3.10;;;;;;;14.47;52.14;99442.41;107740;1256;73088;-40
2023/05/30 00:58:53;;;;;;;10.20;3.30;;;;;;;14.41;53.11;99438.65;107755;1255;67852;-40
2023/05/30 01:01:23;;;;;;;4.50;2.70;;;;;;;14.36;54.19;99436.41;107509;1257;73145;-40
2023/05/30 01:03:51;;;;;;;3.90;2.80;;;;;;;14.29;54.75;99432.86;107294;1257;60110;-40
2023/05/30 01:06:22;;;;;;;3.70;2.50;;;;;;;14.25;54.65;99427.23;107719;1257;59625;-40
2023/05/30 01:08:51;;;;;;;3.60;2.80;;;;;;;14.21;54.77;99434.61;107511;1254;72018;-40
2023/05/30 01:11:48;;;;;;;3.50;2.70;;;;;;;14.18;54.80;99429.93;107657;1253;67596;-40
2023/05/30 01:14:42;;;;;;;3.60;2.70;;;;;;;14.14;54.76;99429.04;107674;1254;72642;-40
2023/05/30 01:17:33;;;;;;;3.60;2.40;;;;;;;14.09;54.47;99425.20;107687;1254;60036;-40
2023/05/30 01:20:10;;;;;;;4.60;2.50;;;;;;;14.06;53.24;99426.27;107690;1256;60107;-40
2023/05/30 01:22:49;;;;;;;3.60;2.60;;;;;;;14.04;51.84;99425.40;107628;1254;70860;-40
2023/05/30 01:25:35;;;;;;;3.90;2.30;;;;;;;14.07;51.35;99427.67;107703;1254;66618;-40
2023/05/30 01:28:13;;;;;;;4.10;2.80;;;;;;;14.10;50.22;99431.28;107446;1259;73309;-40
2023/05/30 01:30:46;;;;;;;6.10;2.90;;;;;;;14.14;50.20;99430.30;107558;1254;60405;-40
2023/05/30 01:33:16;;;;;;;5.80;3.00;;;;;;;14.19;49.44;99432.66;107587;1254;60415;-40
2023/05/30 01:35:45;;;;;;;;;;;;;;;14.24;50.08;99432.30;107484;1254;72603;-40
2023/05/30 01:38:13;;;;;;;4.40;2.70;;;;;;;14.23;50.93;99431.74;107614;1254;66414;-40
2023/05/30 01:40:44;;;;;;;4.90;3.00;;;;;;;14.21;51.35;99432.52;107663;1257;72689;-40
2023/05/30 01:43:32;;;;;;;5.00;2.80;;;;;;;14.26;51.55;99435.11;107670;1254;60434;-40
2023/05/30 01:46:19;;;;;;;4.60;2.70;;;;;;;14.30;50.60;99429.84;107683;1254;60440;-40
2023/05/30 01:49:33;;;;;;;6.50;3.20;;;;;;;14.33;51.77;99430.46;107641;1254;73831;-40
2023/05/30 01:52:03;;;;;;;5.50;3.10;;;;;;;14.31;51.07;99435.07;107466;1254;68055;-40
2023/05/30 01:54:31;;;;;;;4.70;2.60;;;;;;;14.30;51.18;99433.34;107523;1260;72670;-40
2023/05/30 01:57:06;;;;;;;5.00;2.90;;;;;;;14.31;50.01;99430.85;107646;1254;60376;-40
2023/05/30 01:59:34;;;;;;;8.80;3.00;;;;;;;14.31;49.20;99430.30;107663;1253;60447;-40
2023/05/30 02:02:02;;;;;;;6.10;3.10;;;;;;;14.34;48.66;99431.25;107480;1254;72571;-40
2023/05/30 02:04:30;;;;;;;4.40;2.70;;;;;;;14.37;48.65;99432.23;107373;1259;67596;-40
2023/05/30 02:06:58;;;;;;;4.50;3.10;;;;;;;14.39;49.86;99433.64;107614;1255;73136;-40
2023/05/30 02:09:26;;;;;;;5.20;3.40;;;;;;;14.41;51.61;99438.64;107713;1254;60409;-40
2023/05/30 02:11:55;;;;;;;4.90;3.20;;;;;;;14.40;53.43;99443.30;107492;1258;60556;-40
2023/05/30 02:14:22;;;;;;;6.40;3.50;;;;;;;14.27;53.23;99443.06;107518;1257;73461;-40
2023/05/30 02:16:50;;;;;;;8.30;3.70;;;;;;;14.11;52.87;99440.71;107597;1255;67582;-39
2023/05/30 02:19:18;;;;;;;6.70;3.30;;;;;;;13.92;52.98;99445.02;107628;1254;72669;-40
2023/05/30 02:21:45;;;;;;;6.10;3.90;;;;;;;13.73;53.58;99444.90;107590;1254;60623;-40
2023/05/30 02:24:16;;;;;;;7.50;3.30;;;;;;;13.59;54.24;99447.28;107625;1252;59577;-40
2023/05/30 02:26:43;;;;;;;6.30;3.40;;;;;;;13.46;55.00;99444.06;107602;1254;73835;-40
2023/05/30 02:29:11;;;;;;;5.50;3.30;;;;;;;13.37;55.45;99440.01;107674;1254;66271;-40
2023/05/30 02:31:39;;;;;;;6.70;3.20;;;;;;;13.30;56.20;99443.77;107624;1254;72780;-39
2023/05/30 02:34:06;;;;;;;6.30;3.60;;;;;;;13.21;56.41;99446.33;107487;1253;60297;-39
2023/05/30 02:36:38;;;;;;;4.90;3.30;;;;;;;13.13;56.57;99445.06;107717;1254;60018;-39
2023/05/30 02:39:08;;;;;;;4.40;3.10;;;;;;;13.04;56.30;99440.30;107719;1253;72541;-40
2023/05/30 02:41:38;;;;;;;9.80;3.60;;;;;;;13.00;56.20;99439.55;107668;1254;66620;-40
2023/05/30 02:44:06;;;;;;;5.70;3.50;;;;;;;12.92;56.17;99443.73;107602;1254;71355;-39
2023/05/30 02:46:34;;;;;;;5.50;3.60;;;;;;;12.81;56.42;99443.30;107679;1254;59347;-39
2023/05/30 02:49:03;;;;;;;7.50;3.60;;;;;;;12.76;56.83;99445.83;107611;1252;60389;-41
2023/05/30 02:51:31;;;;;;;7.90;4.00;;;;;;;12.78;57.15;99443.20;107609;1253;72559;-40
2023/05/30 02:53:59;;;;;;;6.10;4.20;;;;;;;12.83;57.33;99440.08;107468;1254;66625;-40
2023/05/30 02:56:44;;;;;;;4.60;3.70;;;;;;;12.91;57.47;99440.00;107473;1254;71447;-40
2023/05/30 02:59:29;;;;;;;5.80;3.70;;;;;;;12.97;57.14;99433.91;107503;1254;59732;-40
2023/05/30 03:02:07;;;;;;;6.10;4.40;;;;;;;13.00;57.21;99437.61;107616;1257;60303;-39
2023/05/30 03:04:36;;;;;;;5.10;4.00;;;;;;;13.04;57.37;99435.86;107615;1253;72612;-40
2023/05/30 03:07:08;;;;;;;5.40;3.80;;;;;;;13.09;57.33;99435.45;107681;1253;65332;-40
2023/05/30 03:09:37;;;;;;;5.00;3.70;;;;;;;13.12;57.32;99432.21;107623;1254;71923;-39
2023/05/30 03:12:06;;;;;;;4.20;3.40;;;;;;;13.14;57.09;99435.36;107524;1253;60283;-40
2023/05/30 03:14:34;;;;;;;5.20;3.90;;;;;;;13.18;57.07;99437.13;107580;1253;60523;-40
2023/05/30 03:17:03;;;;;;;5.60;3.50;;;;;;;13.23;57.03;99436.55;107523;1254;73879;-39
2023/05/30 03:19:30;;;;;;;6.60;3.80;;;;;;;13.26;57.05;99436.17;107672;1254;67550;-39
2023/05/30 03:21:59;;;;;;;6.50;3.70;;;;;;;13.28;56.98;99438.23;107635;1254;71395;-40
2023/05/30 03:24:29;;;;;;;4.10;2.50;;;;;;;13.31;56.98;99439.48;107682;1254;60427;-39
2023/05/30 03:26:56;;;;;;;8.70;3.70;;;;;;;13.35;56.91;99436.89;107472;1254;60032;-39
2023/05/30 03:29:24;;;;;;;5.30;3.50;;;;;;;13.41;57.02;99442.23;107622;1253;73855;-39
2023/05/30 03:31:52;;;;;;;7.80;3.70;;;;;;;13.47;56.87;99441.49;107508;1254;67894;-40
2023/05/30 03:34:21;;;;;;;5.90;3.10;;;;;;;13.53;56.94;99438.90;107669;1254;72650;-40
2023/05/30 03:36:52;;;;;;;6.80;3.50;;;;;;;13.59;56.80;99441.98;107635;1257;60402;-39
2023/05/30 03:39:20;;;;;;;5.00;3.20;;;;;;;13.63;56.72;99441.63;107610;1257;60620;-39
2023/05/30 03:41:48;;;;;;;4.60;3.30;;;;;;;13.69;56.86;99440.04;107590;1257;73858;-39
2023/05/30 03:44:15;;;;;;;6.20;3.50;;;;;;;13.76;56.82;99439.08;107622;1252;65870;-40
2023/05/30 03:46:44;;;;;;;8.20;3.60;;;;;;;13.83;56.66;99438.73;107508;1255;72682;-40
2023/05/30 03:49:11;;;;;;;4.10;3.30;;;;;;;13.90;56.75;99440.20;107627;1253;60472;-40
2023/05/30 03:51:39;;;;;;;5.90;3.60;;;;;;;13.99;56.89;99439.70;107523;1253;60422;-40
2023/05/30 03:54:07;;;;;;;8.10;3.60;;;;;;;14.06;56.84;99439.59;107664;1252;73813;-40
2023/05/30 03:56:34;;;;;;;5.90;3.40;;;;;;;14.15;56.86;99437.70;107615;1254;66309;-40
2023/05/30 03:59:02;;;;;;;6.80;3.30;;;;;;;14.24;56.80;99437.36;107618;1253;71782;-40
2023/05/30 04:01:30;;;;;;;4.60;3.30;;;;;;;14.34;56.89;99439.84;107473;1258;60414;-40
2023/05/30 04:03:58;;;;;;;5.10;3.60;;;;;;;14.42;57.22;99437.02;107483;1254;61934;-40
2023/05/30 04:06:26;;;;;;;5.80;3.20;;;;;;;14.53;57.37;99438.53;107627;1254;73867;-40
2023/05/30 04:08:56;;;;;;;5.70;3.30;;;;;;;14.63;57.54;99443.17;107688;1254;65313;-40
2023/05/30 04:11:24;;;;;;;4.80;3.20;;;;;;;14.73;57.53;99437.20;107498;1260;72738;-40
2023/05/30 04:13:52;;;;;;;4.60;3.00;;;;;;;14.84;57.31;99441.05;107460;1254;60472;-40
2023/05/30 04:16:20;;;;;;;5.10;3.40;;;;;;;14.94;57.56;99441.25;107513;1254;60303;-40
2023/05/30 04:18:48;;;;;;;6.40;3.20;;;;;;;15.04;57.53;99439.02;107499;1254;72939;-40
2023/05/30 04:21:15;;;;;;;7.80;3.00;;;;;;;15.14;57.77;99440.36;107475;1252;66830;-40
2023/05/30 04:23:43;;;;;;;10.50;2.80;;;;;;;15.26;57.86;99437.88;107605;1254;71386;-40
2023/05/30 04:26:11;;;;;;;5.10;2.80;;;;;;;15.45;57.51;99442.20;107475;1258;60412;-40
2023/05/30 04:28:39;;;;;;;3.50;3.00;;;;;;;15.63;57.52;99446.11;107514;1253;60746;-40
2023/05/30 04:31:06;;;;;;;4.70;3.50;;;;;;;15.78;57.28;99445.80;107649;1254;72571;-40
2023/05/30 04:33:50;;;;;;;4.10;2.50;;;;;;;15.97;56.76;99441.70;107425;1254;67736;-40
2023/05/30 04:36:19;;;;;;;5.70;3.20;;;;;;;16.11;56.21;99438.88;107520;1257;72686;-40
2023/05/30 04:38:49;;;;;;;4.80;3.20;;;;;;;16.26;55.64;99443.45;107491;1254;60379;-40
2023/05/30 04:41:20;;;;;;;5.70;2.90;;;;;;;16.36;55.03;99441.46;107616;1254;60970;-40
2023/05/30 04:43:52;;;;;;;3.70;2.70;;;;;;;16.50;54.84;99449.00;107731;1256;72592;-40
2023/05/30 04:46:21;;;;;;;6.40;3.00;;;;;;;16.62;54.21;99449.36;107659;1254;67882;-39
2023/05/30 04:48:52;;;;;;;4.40;2.90;;;;;;;16.72;53.83;99453.16;107474;1258;72368;-39
2023/05/30 04:51:20;;;;;;;3.20;2.50;;;;;;;16.82;53.44;99450.54;107672;1254;60284;-39
2023/05/30 04:53:49;;;;;;;5.80;2.90;;;;;;;16.91;52.86;99453.61;107699;1253;60418;-39
2023/05/30 04:56:20;;;;;;;4.10;2.80;;;;;;;17.00;53.04;99452.16;107548;1253;72574;-39
2023/05/30 04:58:48;;;;;;;;;;;;;;;17.09;52.53;99453.91;107612;1254;67697;-40
2023/05/30 05:01:18;;;;;;;8.20;3.10;;;;;;;17.13;52.65;99457.73;107383;1257;72645;-40
2023/05/30 05:03:46;;;;;;;4.20;2.80;;;;;;;17.18;52.54;99455.73;107605;1253;60438;-40
2023/05/30 05:06:14;;;;;;;5.40;2.50;;;;;;;17.29;52.38;99456.13;107392;1253;60565;-40
2023/05/30 05:08:42;;;;;;;4.30;2.80;;;;;;;17.40;52.14;99456.30;107611;1257;73887;-40
2023/05/30 05:11:09;;;;;;;4.20;2.50;;;;;;;17.51;51.51;99457.23;107627;1254;67032;-40
2023/05/30 05:13:37;;;;;;;4.10;2.70;;;;;;;17.62;51.64;99458.88;107461;1258;70397;-40
2023/05/30 05:16:06;;;;;;;4.10;2.80;;;;;;;17.73;51.50;99454.96;107633;1252;60390;-40
2023/05/30 05:18:34;;;;;;;3.70;2.10;;;;;;;17.84;50.77;99454.39;107621;1253;60486;-39
2023/05/30 05:21:01;;;;;;;5.80;2.10;;;;;;;17.93;50.05;99456.73;107591;1254;73963;-39
2023/05/30 05:23:30;;;;;;;3.00;2.10;;;;;;;18.02;48.99;99456.81;107538;1254;67666;-40
2023/05/30 05:26:00;;;;;;;4.50;2.50;;;;;;;18.12;48.82;99458.36;107596;1254;72748;-39
2023/05/30 05:28:27;;;;;;;;;;;;;;;18.22;48.86;99461.15;107625;1253;60109;-39
2023/05/30 05:30:55;;;;;;;3.50;2.20;;;;;;;18.28;48.11;99458.59;107519;1254;60338;-39
2023/05/30 05:33:22;;;;;;;2.80;2.00;;;;;;;18.34;47.42;99456.08;107592;1254;73898;-39
2023/05/30 05:35:50;;;;;;;4.20;2.20;;;;;;;18.46;47.46;99458.30;107524;1259;66448;-39
2023/05/30 05:38:18;;;;;;;4.60;2.30;;;;;;;18.57;46.77;99457.50;107604;1254;72701;-39
2023/05/30 05:40:45;;;;;;;5.10;2.50;;;;;;;18.68;46.44;99457.76;107471;1254;60577;-39
2023/05/30 05:43:13;;;;;;;3.90;2.40;;;;;;;18.78;46.22;99460.23;107615;1254;60466;-39
2023/05/30 05:45:41;;;;;;;3.30;2.20;;;;;;;18.88;45.94;99461.65;107518;1254;73861;-39
2023/05/30 05:48:08;;;;;;;2.70;2.20;;;;;;;18.97;44.24;99463.73;107563;1253;67587;-40
2023/05/30 05:50:36;;;;;;;2.70;2.10;;;;;;;19.08;43.94;99465.71;107486;1254;71462;-39
2023/05/30 05:53:03;;;;;;;3.40;2.40;;;;;;;19.18;43.78;99464.85;107568;1254;60504;-40
2023/05/30 05:55:31;;;;;;;5.00;1.90;;;;;;;19.28;44.03;99470.05;107576;1254;60413;-39
2023/05/30 05:57:59;;;;;;;4.80;2.20;;;;;;;19.39;43.57;99472.88;107475;1254;73809;-39
2023/05/30 06:00:27;;;;;;;3.60;2.10;;;;;;;19.53;42.73;99470.11;107505;1253;67883;-40
2023/05/30 06:02:54;;;;;;;5.40;2.20;;;;;;;19.65;42.52;99468.35;107594;1254;72648;-39
2023/05/30 06:05:22;;;;;;;3.40;2.20;;;;;;;19.76;41.50;99467.77;107498;1254;60397;-39
2023/05/30 06:07:50;;;;;;;3.00;1.80;;;;;;;19.89;39.87;99464.56;107592;1254;60528;-40
2023/05/30 06:10:18;;;;;;;4.30;1.90;;;;;;;20.00;39.30;99464.45;107488;1253;72624;-40
2023/05/30 06:12:45;;;;;;;3.30;1.90;;;;;;;20.10;39.58;99469.54;107588;1254;65347;-40
2023/05/30 06:15:13;;;;;;;5.80;2.10;;;;;;;20.19;39.32;99464.96;107562;1257;71166;-40
2023/05/30 06:17:41;;;;;;;2.50;1.90;;;;;;;20.28;39.19;99467.24;107590;1254;60331;-40
2023/05/30 06:20:09;;;;;;;5.00;2.10;;;;;;;20.37;38.66;99468.13;107592;1253;60309;-40
2023/05/30 06:22:36;;;;;;;2.70;2.00;;;;;;;20.45;38.74;99466.78;107485;1254;73988;-40
2023/05/30 06:25:05;;;;;;;5.60;1.70;;;;;;;20.53;38.55;99464.20;107604;1253;67710;-40
2023/05/30 06:27:33;;;;;;;3.00;2.00;;;;;;;20.62;37.72;99465.83;107666;1253;72232;-40
2023/05/30 06:30:00;;;;;;;4.90;2.00;;;;;;;20.70;37.07;99465.49;107493;1254;60421;-40
2023/05/30 06:32:28;;;;;;;3.60;2.00;;;;;;;20.79;37.93;99461.92;107602;1253;60278;-40
2023/05/30 06:34:56;;;;;;;4.80;1.90;;;;;;;20.90;37.93;99466.18;107574;1254;73872;-40
2023/05/30 06:37:23;;;;;;;3.70;1.80;;;;;;;21.02;37.12;99463.15;107587;1253;67878;-40
2023/05/30 06:39:51;;;;;;;4.60;2.20;;;;;;;21.11;36.20;99464.15;107503;1254;72344;-40
2023/05/30 06:42:20;;;;;;;3.30;2.00;;;;;;;21.17;35.44;99463.95;107556;1254;60785;-40
2023/05/30 06:44:48;;;;;;;2.70;2.10;;;;;;;21.22;35.62;99458.73;107526;1254;60409;-40
2023/05/30 06:47:15;;;;;;;5.00;2.50;;;;;;;21.28;35.42;99454.58;107478;1254;73847;-40
2023/05/30 06:49:43;;;;;;;9.40;2.50;;;;;;;21.32;35.12;99459.84;107511;1254;67690;-40
2023/05/30 06:52:10;;;;;;;3.90;2.20;;;;;;;21.38;35.20;99457.50;107588;1254;71352;-40
2023/05/30 06:54:38;;;;;;;3.10;1.90;;;;;;;21.43;34.42;99456.42;107581;1254;60415;-40
2023/05/30 06:57:06;;;;;;;3.80;1.80;;;;;;;21.47;34.19;99455.33;107603;1254;60495;-40
2023/05/30 06:59:34;;;;;;;2.60;1.80;;;;;;;21.51;33.73;99456.41;107633;1252;72582;-40
2023/05/30 07:02:03;;;;;;;2.50;1.90;;;;;;;21.57;33.53;99456.34;107611;1254;67613;-40
2023/05/30 07:04:31;;;;;;;4.50;1.70;;;;;;;21.63;32.88;99456.40;107627;1254;72653;-40
2023/05/30 07:06:59;;;;;;;6.30;2.00;;;;;;;21.70;33.37;99459.27;107481;1253;60498;-40
2023/05/30 07:09:26;;;;;;;3.30;1.70;;;;;;;21.77;33.43;99457.64;107587;1253;60433;-40
2023/05/30 07:11:54;;;;;;;3.70;1.90;;;;;;;21.84;32.97;99458.26;107490;1254;73810;-40
2023/05/30 07:14:22;;;;;;;4.90;2.00;;;;;;;21.89;31.74;99448.66;107492;1254;68041;-40
2023/05/30 07:16:49;;;;;;;2.80;1.90;;;;;;;21.94;31.86;99455.11;107574;1256;71162;-41
2023/05/30 07:19:17;;;;;;;3.10;1.80;;;;;;;21.99;32.38;99453.72;107593;1257;60496;-41
2023/05/30 07:21:45;;;;;;;2.00;1.60;;;;;;;22.05;32.59;99452.85;107603;1253;60524;-40
2023/05/30 07:24:12;;;;;;;4.40;2.10;;;;;;;22.09;32.54;99453.08;107557;1253;73830;-40
2023/05/30 07:26:40;;;;;;;10.20;2.50;;;;;;;22.18;32.54;99449.77;107597;1253;66306;-41
2023/05/30 07:29:08;;;;;;;7.70;2.20;;;;;;;22.26;32.48;99442.92;107585;1253;72701;-41
2023/05/30 07:31:35;;;;;;;4.00;2.30;;;;;;;22.35;31.81;99441.25;107495;1253;60431;-40
2023/05/30 07:34:03;;;;;;;20.70;4.50;;;;;;;22.43;32.05;99441.17;107598;1254;60319;-40
2023/05/30 07:36:31;;;;;;;5.50;2.10;;;;;;;22.52;32.50;99440.68;107605;1253;72578;-40
2023/05/30 07:39:00;;;;;;;5.50;2.40;;;;;;;22.62;32.30;99441.10;107527;1254;67747;-40
2023/05/30 07:41:27;;;;;;;3.30;2.20;;;;;;;22.72;32.49;99443.67;107621;1254;73071;-40
2023/05/30 07:43:55;;;;;;;3.90;2.10;;;;;;;22.82;32.31;99438.73;107595;1253;59572;-40
2023/05/30 07:46:23;;;;;;;4.80;2.30;;;;;;;22.90;30.93;99433.50;107600;1253;60437;-41
2023/05/30 07:48:50;;;;;;;6.00;2.50;;;;;;;22.99;31.25;99432.55;107525;1253;73866;-40
2023/05/30 07:51:20;;;;;;;6.60;2.40;;;;;;;23.03;30.45;99429.98;107604;1253;66290;-40
2023/05/30 07:53:48;;;;;;;6.60;2.10;;;;;;;23.05;30.98;99435.67;107597;1254;72763;-40
2023/05/30 07:56:15;;;;;;;6.90;2.40;;;;;;;23.10;31.40;99432.29;107497;1254;60390;-40
2023/05/30 07:58:43;;;;;;;6.20;2.40;;;;;;;23.17;30.29;99430.71;107623;1254;60201;-41
2023/05/30 08:01:10;;;;;;;6.20;2.50;;;;;;;23.19;30.02;99428.53;107580;1256;73258;-40
2023/05/30 08:03:38;;;;;;;3.80;2.50;;;;;;;23.16;29.60;99424.49;107594;1254;67900;-41
2023/05/30 08:06:07;;;;;;;4.20;2.30;;;;;;;23.16;29.59;99425.79;107608;1254;72749;-41
2023/05/30 08:08:35;;;;;;;5.20;2.30;;;;;;;23.20;30.40;99427.93;107602;1254;60421;-40
2023/05/30 08:11:02;;;;;;;4.70;2.50;;;;;;;23.28;29.30;99424.98;107507;1257;60310;-40
2023/05/30 08:13:31;;;;;;;3.10;2.10;;;;;;;23.34;29.81;99427.10;107568;1254;73867;-40
2023/05/30 08:15:58;;;;;;;3.10;2.20;;;;;;;23.42;29.97;99429.77;107588;1254;66749;-40
2023/05/30 08:18:30;;;;;;;3.60;2.10;;;;;;;23.49;30.21;99429.79;107589;1254;72655;-41
2023/05/30 08:20:58;;;;;;;6.40;2.30;;;;;;;23.62;29.96;99435.45;107466;1254;60313;-41
2023/05/30 08:23:26;;;;;;;5.60;2.30;;;;;;;23.69;28.78;99435.38;107591;1254;60299;-41
2023/05/30 08:25:58;;;;;;;4.80;2.50;;;;;;;23.73;28.16;99432.33;107576;1254;73828;-40
2023/05/30 08:28:26;;;;;;;4.70;1.90;;;;;;;23.80;28.68;99427.25;107572;1254;67100;-40
2023/05/30 08:30:54;;;;;;;4.90;2.40;;;;;;;23.89;29.08;99427.70;107584;1254;71471;-40
2023/05/30 08:33:22;;;;;;;4.30;2.30;;;;;;;23.96;28.36;99430.21;107461;1254;61023;-40
2023/05/30 08:35:49;;;;;;;3.50;2.40;;;;;;;24.02;29.00;99431.71;107544;1254;60464;-40
2023/05/30 08:38:17;;;;;;;6.90;2.30;;;;;;;24.12;28.74;99431.15;107504;1254;73876;-41
2023/05/30 08:40:45;;;;;;;3.60;2.20;;;;;;;24.20;28.02;99427.71;107513;1254;66629;-40
2023/05/30 08:43:13;;;;;;;5.40;2.50;;;;;;;24.22;27.98;99429.24;107623;1253;71418;-41
2023/05/30 08:45:40;;;;;;;3.60;2.20;;;;;;;24.19;27.67;99423.41;107583;1257;60537;-41
2023/05/30 08:48:08;;;;;;;5.20;2.50;;;;;;;24.19;27.97;99428.08;107544;1254;60501;-40
2023/05/30 08:50:37;;;;;;;4.00;2.20;;;;;;;24.24;28.09;99419.67;107574;1253;72994;-41
2023/05/30 08:53:09;;;;;;;8.30;2.40;;;;;;;24.32;27.87;99414.00;107366;1253;66772;-40
2023/05/30 08:55:49;;;;;;;6.60;2.70;;;;;;;24.38;27.45;99417.41;107487;1254;72724;-40
2023/05/30 08:58:25;;;;;;;4.10;2.50;;;;;;;24.38;27.42;99417.42;107406;1254;60416;-41
2023/05/30 09:00:53;;;;;;;3.10;2.10;;;;;;;24.40;27.89;99417.05;107625;1254;60303;-41
2023/05/30 09:03:22;;;;;;;3.80;2.40;;;;;;;24.46;27.64;99406.84;107595;1253;73836;-41
2023/05/30 09:05:51;;;;;;;3.30;2.40;;;;;;;24.55;28.31;99410.44;107621;1253;67548;-41
2023/05/30 09:08:19;;;;;;;3.10;2.10;;;;;;;24.67;28.43;99408.50;107363;1254;72731;-40
2023/05/30 09:10:51;;;;;;;3.30;2.10;;;;;;;24.77;28.26;99403.38;107481;1254;60174;-40
2023/05/30 09:13:18;;;;;;;2.90;2.00;;;;;;;24.85;28.53;99399.27;107619;1254;60523;-41
2023/05/30 09:15:46;;;;;;;8.00;2.40;;;;;;;24.92;28.55;99386.91;107506;1254;73906;-41
2023/05/30 09:18:16;;;;;;;3.60;2.10;;;;;;;24.92;28.27;99390.92;107620;1254;68339;-41
2023/05/30 09:20:43;;;;;;;3.20;2.40;;;;;;;24.90;27.45;99394.31;107555;1254;72695;-41
2023/05/30 09:23:11;;;;;;;4.50;2.30;;;;;;;24.89;27.54;99387.33;107550;1253;60058;-40
2023/05/30 09:25:41;;;;;;;5.60;2.10;;;;;;;24.92;26.51;99383.63;107498;1253;60417;-40
2023/05/30 09:28:10;;;;;;;5.00;2.20;;;;;;;24.96;26.67;99385.70;107486;1258;73871;-40
2023/05/30 09:30:57;;;;;;;2.90;2.20;;;;;;;25.04;27.20;99387.45;107540;1253;67751;-40
2023/05/30 09:36:04;;;;;;;5.90;2.10;;;;;;;25.24;27.12;99384.03;104048;1291;600339;-39
2023/05/30 09:38:32;;;;;;;4.90;2.20;;;;;;;25.32;27.24;99386.70;106573;1269;59310;-40
2023/05/30 09:41:02;;;;;;;3.10;2.40;;;;;;;25.33;26.93;99382.61;106588;1267;59365;-40
2023/05/30 09:43:34;;;;;;;3.90;2.20;;;;;;;25.37;27.25;99378.64;106663;1267;71481;-39
2023/05/30 09:46:03;;;;;;;3.30;2.20;;;;;;;25.37;26.76;99381.34;106623;1269;67773;-40
2023/05/30 09:48:31;;;;;;;4.00;2.30;;;;;;;25.35;27.13;99380.58;106439;1268;231410;-41
2023/05/30 09:51:00;;;;;;;4.30;2.40;;;;;;;25.38;27.51;99376.95;106731;1265;59304;-40
2023/05/30 09:53:29;;;;;;;2.90;2.40;;;;;;;25.42;27.08;99375.10;106806;1265;59234;-41
2023/05/30 09:55:57;;;;;;;3.20;2.10;;;;;;;25.44;26.97;99370.91;106725;1266;71061;-40
2023/05/30 09:58:25;;;;;;;3.70;2.40;;;;;;;25.47;26.79;99366.91;106598;1265;66312;-40
2023/05/30 10:00:57;;;;;;;5.10;2.30;;;;;;;25.53;26.98;99362.86;106650;1265;72715;-40
2023/05/30 10:03:41;;;;;;;2.80;2.00;;;;;;;25.62;27.07;99364.95;106659;1266;60101;-40
2023/05/30 10:06:16;;;;;;;3.90;2.00;;;;;;;25.78;27.22;99364.59;106640;1269;60097;-40
2023/05/30 10:08:45;;;;;;;3.50;2.00;;;;;;;25.94;26.94;99365.90;106706;1265;72237;-40
2023/05/30 10:11:13;;;;;;;5.80;2.00;;;;;;;26.06;26.87;99365.77;106742;1265;67916;-40
2023/05/30 10:13:41;;;;;;;3.20;2.00;;;;;;;26.20;26.89;99355.66;106734;1265;71121;-40
2023/05/30 10:16:12;;;;;;;3.10;2.20;;;;;;;26.34;26.53;99351.70;106691;1266;59699;-40
2023/05/30 10:18:44;;;;;;;2.50;1.80;;;;;;;26.49;26.36;99350.15;106748;1266;60503;-40
2023/05/30 10:21:11;;;;;;;4.10;2.20;;;;;;;26.60;25.63;99344.10;107095;1259;73049;-40
2023/05/30 10:23:42;;;;;;;4.60;2.10;;;;;;;26.63;24.94;99337.41;107110;1259;67654;-40
2023/05/30 10:26:10;;;;;;;4.70;2.50;;;;;;;26.71;25.44;99332.18;107044;1258;71404;-40
2023/05/30 10:28:38;;;;;;;5.30;2.30;;;;;;;26.81;25.12;99338.94;107039;1259;60043;-41
2023/05/30 10:31:05;;;;;;;5.00;2.50;;;;;;;26.84;25.30;99336.69;107070;1257;60216;-40
2023/05/30 10:33:35;;;;;;;6.80;2.30;;;;;;;26.87;25.05;99332.77;107053;1257;73275;-40
2023/05/30 10:36:22;;;;;;;3.00;2.30;;;;;;;26.83;24.83;99325.59;107081;1259;66450;-40
2023/05/30 10:39:01;;;;;;;3.80;2.70;;;;;;;26.83;25.49;99330.36;107071;1257;72783;-41
2023/05/30 10:41:43;;;;;;;3.20;2.00;;;;;;;27.00;25.07;99329.39;107091;1262;60101;-40
2023/05/30 10:44:59;;;;;;;5.00;2.10;;;;;;;27.20;25.68;99324.33;107248;1257;60040;-40
2023/05/30 10:48:02;;;;;;;2.80;1.90;;;;;;;27.43;25.43;99332.35;106935;1259;73649;-40
2023/05/30 10:50:45;;;;;;;6.70;2.40;;;;;;;27.62;24.91;99325.23;107055;1262;68230;-40
2023/05/30 10:53:17;;;;;;;4.10;2.20;;;;;;;27.74;24.29;99328.80;107069;1259;72674;-40
2023/05/30 10:55:46;;;;;;;3.90;2.20;;;;;;;27.82;24.18;99330.23;107103;1259;59664;-40
2023/05/30 10:58:42;;;;;;;6.70;2.70;;;;;;;28.02;24.28;99324.88;107086;1262;60071;-40
2023/05/30 11:01:27;;;;;;;5.20;2.20;;;;;;;28.14;24.00;99320.70;107212;1261;71756;-40
2023/05/30 11:03:59;;;;;;;5.50;2.10;;;;;;;28.19;23.64;99318.67;107110;1258;65925;-40
2023/05/30 11:06:27;;;;;;;3.50;2.30;;;;;;;28.33;24.15;99314.15;107146;1262;72719;-40
2023/05/30 11:09:11;;;;;;;3.80;2.30;;;;;;;28.59;23.66;99312.05;107022;1258;60302;-40
2023/05/30 11:11:40;;;;;;;5.20;2.40;;;;;;;28.76;23.58;99306.25;107076;1256;60023;-40
2023/05/30 11:14:09;;;;;;;8.30;2.30;;;;;;;28.90;23.51;99311.18;107076;1259;73076;-40
2023/05/30 11:16:55;;;;;;;4.00;2.20;;;;;;;29.04;22.64;99301.98;107041;1261;66304;-40
2023/05/30 11:19:44;;;;;;;5.30;2.30;;;;;;;29.22;21.82;99297.96;107054;1262;72638;-41
2023/05/30 11:22:12;;;;;;;3.50;2.30;;;;;;;29.41;21.74;99292.03;107194;1257;60135;-40
2023/05/30 11:24:40;;;;;;;6.00;2.30;;;;;;;29.72;21.48;99288.23;107089;1261;60042;-40
2023/05/30 11:27:12;;;;;;;4.90;2.40;;;;;;;29.84;21.32;99288.95;107016;1259;72031;-40
2023/05/30 11:29:49;;;;;;;3.70;2.50;;;;;;;29.78;21.11;99284.02;107116;1259;66628;-40
2023/05/30 11:32:18;;;;;;;4.60;2.60;;;;;;;29.74;21.46;99285.91;107095;1258;72704;-41
2023/05/30 11:34:57;;;;;;;4.30;2.30;;;;;;;29.85;21.87;99285.02;107030;1257;60067;-40
2023/05/30 11:37:35;;;;;;;4.20;2.40;;;;;;;30.14;21.35;99289.99;107066;1258;59702;-40
2023/05/30 11:40:08;;;;;;;4.70;2.50;;;;;;;30.42;20.98;99287.04;107110;1257;73041;-40
2023/05/30 11:42:36;;;;;;;4.00;2.20;;;;;;;30.70;20.34;99285.39;107076;1259;68066;-41
2023/05/30 11:45:05;;;;;;;3.80;2.40;;;;;;;30.68;20.55;99285.31;107010;1263;72714;-41